Wetterdaten: Woche 17.09.01 - 23.09.01 (KW38)
Datum Zeit Temperatur Luftfeuchte Luftdruck Regenmenge Wind Richtung Taupunkt Windchill
17.09.2001 00:00 7.1 C 95 % 1005.7 hPa 1.3 l/m 0.8 km/h (0 Bft) O-SO 6.3 C 7.0 C
17.09.2001 01:00 7.0 C 95 % 1005.7 hPa 1.9 l/m 0.2 km/h (0 Bft) SO 6.3 C 7.0 C
17.09.2001 02:00 7.0 C 95 % 1004.7 hPa 1.3 l/m 0.5 km/h (0 Bft) O-SO 6.3 C 7.0 C
17.09.2001 03:00 7.2 C 95 % 1004.2 hPa 0.3 l/m 0.3 km/h (0 Bft) O-SO 6.5 C 7.2 C
17.09.2001 04:00 7.6 C 95 % 1003.6 hPa 0.9 l/m 1.2 km/h (1 Bft) W-NW 6.9 C 7.4 C
17.09.2001 05:00 7.6 C 94 % 1003.6 hPa 0.6 l/m 5.0 km/h (1 Bft) W-NW 6.7 C 6.7 C
17.09.2001 06:00 7.6 C 95 % 1003.6 hPa 0.6 l/m 1.4 km/h (1 Bft) W 6.8 C 7.5 C
17.09.2001 07:00 7.6 C 94 % 1003.8 hPa 0.3 l/m 0.7 km/h (0 Bft) W 6.7 C 7.5 C
17.09.2001 08:00 7.7 C 94 % 1004.7 hPa 0.3 l/m 5.2 km/h (1 Bft) W 6.8 C 6.9 C
17.09.2001 09:00 7.9 C 94 % 1004.7 hPa 1.6 l/m 1.0 km/h (0 Bft) W-NW 7.0 C 7.8 C
17.09.2001 10:00 7.9 C 94 % 1004.7 hPa 1.9 l/m 1.6 km/h (1 Bft) W-SW 7.0 C 7.7 C
17.09.2001 11:00 8.7 C 92 % 1004.7 hPa 0.6 l/m 0.7 km/h (0 Bft) W-SW 7.4 C 8.6 C
17.09.2001 12:00 9.5 C 89 % 1004.7 hPa 0.3 l/m 2.7 km/h (1 Bft) W 7.7 C 9.3 C
17.09.2001 13:00 9.8 C 89 % 1004.7 hPa 0.0 l/m 1.9 km/h (1 Bft) W-NW 8.1 C 9.8 C
17.09.2001 14:00 9.4 C 89 % 1004.7 hPa 0.6 l/m 4.5 km/h (1 Bft) SO 7.6 C 9.0 C
17.09.2001 15:00 9.8 C 89 % 1004.7 hPa 0.3 l/m 1.3 km/h (1 Bft) W 8.1 C 9.8 C
17.09.2001 16:00 10.2 C 81 % 1004.5 hPa 0.0 l/m 9.3 km/h (2 Bft) W-NW 7.0 C 9.2 C
17.09.2001 17:00 10.3 C 82 % 1004.7 hPa 0.0 l/m 3.4 km/h (1 Bft) S 7.4 C 10.3 C
17.09.2001 18:00 9.7 C 86 % 1004.7 hPa 0.6 l/m 10.1 km/h (2 Bft) O-SO 7.4 C 8.9 C
17.09.2001 19:00 9.1 C 89 % 1005.5 hPa 0.0 l/m 2.4 km/h (1 Bft) O-SO 7.4 C 8.9 C
17.09.2001 20:00 8.0 C 88 % 1005.7 hPa 0.3 l/m 4.8 km/h (1 Bft) O-SO 6.2 C 7.3 C
17.09.2001 21:00 7.2 C 91 % 1005.7 hPa 0.0 l/m 1.7 km/h (1 Bft) O-SO 5.9 C 7.2 C
17.09.2001 22:00 7.2 C 92 % 1006.1 hPa 0.0 l/m 2.1 km/h (1 Bft) SO 5.9 C 7.0 C
17.09.2001 23:00 7.5 C 92 % 1006.1 hPa 0.0 l/m 0.1 km/h (0 Bft) N 6.2 C 7.5 C
18.09.2001 00:00 6.8 C 92 % 1005.7 hPa 0.0 l/m 0.6 km/h (0 Bft) O-SO 5.6 C 6.8 C
18.09.2001 01:00 6.2 C 94 % 1005.7 hPa 0.0 l/m 3.0 km/h (1 Bft) O-SO 5.2 C 5.8 C
18.09.2001 02:00 5.9 C 95 % 1005.7 hPa 0.0 l/m 3.4 km/h (1 Bft) O-SO 5.1 C 5.5 C
18.09.2001 03:00 5.6 C 95 % 1005.7 hPa 0.0 l/m 5.1 km/h (1 Bft) O-SO 4.9 C 4.8 C
18.09.2001 04:00 6.0 C 95 % 1005.7 hPa 0.0 l/m 1.1 km/h (0 Bft) O-SO 5.3 C 6.0 C
18.09.2001 05:00 6.2 C 95 % 1005.7 hPa 0.0 l/m 1.5 km/h (1 Bft) O-SO 5.4 C 6.1 C
18.09.2001 06:00 6.5 C 95 % 1005.7 hPa 0.0 l/m 0.1 km/h (0 Bft) N 5.7 C 6.5 C
18.09.2001 07:00 6.5 C 93 % 1005.7 hPa 0.0 l/m 0.3 km/h (0 Bft) SO 5.5 C 6.5 C
18.09.2001 08:00 6.8 C 92 % 1005.8 hPa 0.0 l/m 0.0 km/h (0 Bft) N 5.6 C 6.8 C
18.09.2001 09:00 7.3 C 88 % 1006.4 hPa 0.0 l/m 1.6 km/h (1 Bft) O-SO 5.5 C 7.2 C
18.09.2001 10:00 7.8 C 84 % 1006.7 hPa 0.0 l/m 1.0 km/h (0 Bft) W-NW 5.4 C 7.8 C
18.09.2001 11:00 9.9 C 76 % 1006.6 hPa 0.0 l/m 7.8 km/h (2 Bft) O-SO 5.9 C 9.6 C
18.09.2001 12:00 12.1 C 68 % 1005.8 hPa 0.0 l/m 8.2 km/h (2 Bft) O-SO 6.4 C 12.1 C
18.09.2001 13:00 13.3 C 59 % 1005.5 hPa 0.0 l/m 5.3 km/h (1 Bft) O-SO 5.4 C 13.3 C
18.09.2001 14:00 13.1 C 57 % 1005.1 hPa 0.0 l/m 0.9 km/h (0 Bft) O 4.8 C 13.1 C
18.09.2001 15:00 15.0 C 49 % 1004.7 hPa 0.0 l/m 3.7 km/h (1 Bft) O-SO 4.4 C 15.0 C
18.09.2001 16:00 15.3 C 47 % 1004.7 hPa 0.0 l/m 3.0 km/h (1 Bft) N-NO 4.1 C 15.3 C
18.09.2001 17:00 14.2 C 51 % 1004.7 hPa 0.0 l/m 0.9 km/h (0 Bft) O 4.3 C 14.2 C
18.09.2001 18:00 13.5 C 55 % 1004.1 hPa 0.0 l/m 0.8 km/h (0 Bft) W 4.5 C 13.5 C
18.09.2001 19:00 10.8 C 72 % 1003.7 hPa 0.0 l/m 2.9 km/h (1 Bft) O 5.9 C 10.8 C
18.09.2001 20:00 8.1 C 85 % 1004.6 hPa 0.0 l/m 4.2 km/h (1 Bft) O 5.7 C 7.7 C
18.09.2001 21:00 6.6 C 90 % 1004.7 hPa 0.0 l/m 3.6 km/h (1 Bft) O 5.1 C 6.2 C
18.09.2001 22:00 5.5 C 92 % 1004.7 hPa 0.0 l/m 2.3 km/h (1 Bft) O 4.3 C 5.4 C
18.09.2001 23:00 4.8 C 93 % 1004.7 hPa 0.0 l/m 0.5 km/h (0 Bft) O 3.7 C 4.7 C
19.09.2001 00:00 4.3 C 94 % 1005.0 hPa 0.0 l/m 0.5 km/h (0 Bft) O 3.4 C 4.3 C
19.09.2001 01:00 4.0 C 95 % 1005.6 hPa 0.0 l/m 1.4 km/h (1 Bft) O 3.3 C 3.9 C
19.09.2001 02:00 4.3 C 95 % 1005.6 hPa 0.0 l/m 0.0 km/h (0 Bft) N 3.6 C 4.3 C
19.09.2001 03:00 5.0 C 96 % 1004.9 hPa 0.0 l/m 0.1 km/h (0 Bft) O 4.4 C 5.0 C
19.09.2001 04:00 4.9 C 96 % 1004.9 hPa 0.0 l/m 1.0 km/h (0 Bft) O-SO 4.3 C 4.8 C
19.09.2001 05:00 4.7 C 96 % 1004.7 hPa 0.0 l/m 0.4 km/h (0 Bft) O-SO 4.2 C 4.7 C
19.09.2001 06:00 5.1 C 96 % 1004.9 hPa 0.0 l/m 1.3 km/h (1 Bft) O-SO 4.5 C 4.9 C
19.09.2001 07:00 5.1 C 96 % 1004.7 hPa 0.0 l/m 2.4 km/h (1 Bft) O-SO 4.5 C 4.8 C
19.09.2001 08:00 5.6 C 95 % 1004.7 hPa 0.0 l/m 1.0 km/h (0 Bft) O 4.9 C 5.6 C
19.09.2001 09:00 6.1 C 94 % 1004.7 hPa 0.0 l/m 2.0 km/h (1 Bft) O 5.2 C 5.9 C
19.09.2001 10:00 7.4 C 89 % 1004.7 hPa 0.0 l/m 0.5 km/h (0 Bft) O 5.8 C 7.4 C
19.09.2001 11:00 9.2 C 82 % 1004.7 hPa 0.0 l/m 0.8 km/h (0 Bft) W-NW 6.2 C 9.1 C
19.09.2001 12:00 10.6 C 77 % 1004.7 hPa 0.0 l/m 1.0 km/h (0 Bft) SW 6.8 C 10.6 C
19.09.2001 13:00 12.0 C 73 % 1004.7 hPa 0.0 l/m 2.2 km/h (1 Bft) W 7.2 C 12.0 C
19.09.2001 14:00 11.6 C 78 % 1004.5 hPa 0.0 l/m 0.3 km/h (0 Bft) NW 7.9 C 11.6 C
19.09.2001 15:00 12.0 C 73 % 1003.6 hPa 0.0 l/m 6.3 km/h (2 Bft) O-SO 7.2 C 12.0 C
19.09.2001 16:00 12.3 C 70 % 1003.6 hPa 0.0 l/m 6.3 km/h (2 Bft) O-SO 7.0 C 12.3 C
19.09.2001 17:00 12.1 C 75 % 1003.6 hPa 0.0 l/m 3.1 km/h (1 Bft) O 7.8 C 12.1 C
19.09.2001 18:00 11.7 C 78 % 1003.6 hPa 0.0 l/m 3.4 km/h (1 Bft) O-SO 8.0 C 11.7 C
19.09.2001 19:00 12.2 C 71 % 1003.6 hPa 0.0 l/m 8.7 km/h (2 Bft) O-SO 7.1 C 12.2 C
19.09.2001 20:00 12.2 C 68 % 1004.4 hPa 0.0 l/m 11.0 km/h (2 Bft) S-SW 6.5 C 12.2 C
19.09.2001 21:00 11.7 C 73 % 1004.7 hPa 0.0 l/m 11.6 km/h (2 Bft) S-SO 7.0 C 11.7 C
19.09.2001 22:00 11.1 C 77 % 1005.1 hPa 0.3 l/m 11.7 km/h (2 Bft) O-SO 7.3 C 11.1 C
19.09.2001 23:00 10.6 C 82 % 1005.7 hPa 0.6 l/m 3.1 km/h (1 Bft) S 7.7 C 10.6 C
20.09.2001 00:00 10.4 C 86 % 1005.6 hPa 1.9 l/m 9.3 km/h (2 Bft) O-SO 8.2 C 10.4 C
20.09.2001 01:00 10.4 C 87 % 1004.8 hPa 1.6 l/m 12.5 km/h (3 Bft) S 8.3 C 10.4 C
20.09.2001 02:00 10.8 C 85 % 1005.5 hPa 0.3 l/m 14.8 km/h (3 Bft) W 8.3 C 10.8 C
20.09.2001 03:00 10.8 C 86 % 1005.7 hPa 2.2 l/m 9.0 km/h (2 Bft) W 8.5 C 10.8 C
20.09.2001 04:00 10.7 C 89 % 1005.7 hPa 1.3 l/m 10.8 km/h (2 Bft) W 8.9 C 10.7 C
20.09.2001 05:00 10.7 C 88 % 1005.7 hPa 0.6 l/m 10.8 km/h (2 Bft) W 8.9 C 10.7 C
20.09.2001 06:00 10.6 C 90 % 1005.7 hPa 0.6 l/m 3.3 km/h (1 Bft) W 9.0 C 10.6 C
20.09.2001 07:00 10.5 C 90 % 1005.8 hPa 0.0 l/m 3.2 km/h (1 Bft) O-SO 9.0 C 10.5 C
20.09.2001 08:00 10.7 C 91 % 1006.7 hPa 0.0 l/m 0.9 km/h (0 Bft) O 9.2 C 10.7 C
20.09.2001 09:00 11.1 C 92 % 1006.7 hPa 0.3 l/m 0.0 km/h (0 Bft) N 9.8 C 11.1 C
20.09.2001 10:00 11.8 C 92 % 1007.6 hPa 0.6 l/m 3.1 km/h (1 Bft) O-SO 10.5 C 11.8 C
20.09.2001 11:00 12.2 C 90 % 1007.8 hPa 0.3 l/m 1.0 km/h (0 Bft) O-SO 10.7 C 12.2 C
20.09.2001 12:00 12.5 C 91 % 1007.8 hPa 0.0 l/m 1.4 km/h (1 Bft) O-SO 11.0 C 12.5 C
20.09.2001 13:00 13.8 C 86 % 1007.8 hPa 0.0 l/m 0.3 km/h (0 Bft) O-NO 11.5 C 13.8 C
20.09.2001 14:00 14.1 C 83 % 1007.4 hPa 0.0 l/m 1.0 km/h (0 Bft) O-SO 11.3 C 14.1 C
20.09.2001 15:00 15.1 C 79 % 1006.7 hPa 0.0 l/m 4.0 km/h (1 Bft) O 11.6 C 15.1 C
20.09.2001 16:00 15.9 C 73 % 1006.7 hPa 0.0 l/m 2.4 km/h (1 Bft) W 11.1 C 15.9 C
20.09.2001 17:00 15.1 C 74 % 1006.7 hPa 0.0 l/m 3.5 km/h (1 Bft) W-NW 10.5 C 15.1 C
20.09.2001 18:00 13.9 C 79 % 1006.7 hPa 0.0 l/m 0.3 km/h (0 Bft) W 10.3 C 13.9 C
20.09.2001 19:00 13.3 C 81 % 1006.6 hPa 0.0 l/m 0.4 km/h (0 Bft) W-SW 10.1 C 13.3 C
20.09.2001 20:00 12.7 C 85 % 1006.6 hPa 0.0 l/m 3.5 km/h (1 Bft) O-SO 10.3 C 12.7 C
20.09.2001 21:00 12.3 C 88 % 1006.7 hPa 0.6 l/m 1.7 km/h (1 Bft) W-NW 10.3 C 12.3 C
20.09.2001 22:00 11.4 C 89 % 1006.9 hPa 2.8 l/m 12.9 km/h (3 Bft) W-NW 9.7 C 11.4 C
20.09.2001 23:00 11.3 C 91 % 1006.7 hPa 3.4 l/m 8.0 km/h (2 Bft) W-NW 9.9 C 11.3 C
21.09.2001 00:00 11.1 C 93 % 1007.5 hPa 0.9 l/m 5.2 km/h (1 Bft) O-SO 9.9 C 11.1 C
21.09.2001 01:00 10.8 C 93 % 1007.3 hPa 0.0 l/m 2.5 km/h (1 Bft) O-SO 9.7 C 10.8 C
21.09.2001 02:00 10.8 C 93 % 1007.8 hPa 0.0 l/m 2.2 km/h (1 Bft) O-SO 9.7 C 10.8 C
21.09.2001 03:00 10.6 C 93 % 1007.8 hPa 0.0 l/m 7.0 km/h (2 Bft) O-SO 9.6 C 10.6 C
21.09.2001 04:00 10.5 C 93 % 1007.8 hPa 0.0 l/m 4.9 km/h (1 Bft) O-SO 9.5 C 10.5 C
21.09.2001 05:00 10.5 C 93 % 1007.8 hPa 0.0 l/m 4.4 km/h (1 Bft) O-SO 9.4 C 10.5 C
21.09.2001 06:00 10.3 C 93 % 1007.7 hPa 0.0 l/m 1.7 km/h (1 Bft) O-SO 9.2 C 10.3 C
21.09.2001 07:00 10.5 C 93 % 1007.4 hPa 0.0 l/m 1.7 km/h (1 Bft) O-SO 9.4 C 10.5 C
21.09.2001 08:00 10.8 C 94 % 1007.4 hPa 0.0 l/m 2.4 km/h (1 Bft) O 9.9 C 10.8 C
21.09.2001 09:00 11.5 C 93 % 1007.8 hPa 0.0 l/m 1.2 km/h (1 Bft) O-SO 10.4 C 11.5 C
21.09.2001 10:00 12.2 C 92 % 1007.9 hPa 0.0 l/m 0.1 km/h (0 Bft) N 10.9 C 12.2 C
21.09.2001 11:00 12.2 C 87 % 1007.9 hPa 0.3 l/m 10.3 km/h (2 Bft) W-NW 10.1 C 12.2 C
21.09.2001 12:00 12.9 C 82 % 1007.8 hPa 0.0 l/m 11.0 km/h (2 Bft) W-NW 9.9 C 12.9 C
21.09.2001 13:00 14.0 C 77 % 1007.8 hPa 0.0 l/m 8.0 km/h (2 Bft) W-NW 10.1 C 14.0 C
21.09.2001 14:00 14.7 C 73 % 1007.8 hPa 0.0 l/m 8.7 km/h (2 Bft) W-NW 9.9 C 14.7 C
21.09.2001 15:00 15.4 C 71 % 1007.2 hPa 0.0 l/m 6.2 km/h (2 Bft) W-NW 10.2 C 15.4 C
21.09.2001 16:00 15.1 C 69 % 1006.7 hPa 0.0 l/m 9.8 km/h (2 Bft) W-NW 9.4 C 15.1 C
21.09.2001 17:00 14.2 C 75 % 1006.7 hPa 0.0 l/m 1.3 km/h (1 Bft) W-NW 9.7 C 14.2 C
21.09.2001 18:00 13.4 C 82 % 1006.9 hPa 0.0 l/m 0.5 km/h (0 Bft) O-SO 10.4 C 13.4 C
21.09.2001 19:00 12.9 C 87 % 1007.5 hPa 0.0 l/m 3.2 km/h (1 Bft) O-SO 10.8 C 12.9 C
21.09.2001 20:00 12.2 C 87 % 1007.8 hPa 0.0 l/m 2.3 km/h (1 Bft) O-SO 10.1 C 12.2 C
21.09.2001 21:00 11.4 C 86 % 1007.8 hPa 0.0 l/m 0.4 km/h (0 Bft) O-SO 9.1 C 11.4 C
21.09.2001 22:00 11.2 C 88 % 1007.8 hPa 0.0 l/m 0.9 km/h (0 Bft) O 9.4 C 11.2 C
21.09.2001 23:00 10.8 C 89 % 1007.8 hPa 0.0 l/m 0.0 km/h (0 Bft) N 9.1 C 10.8 C
22.09.2001 00:00 10.4 C 90 % 1007.5 hPa 0.0 l/m 0.4 km/h (0 Bft) O-SO 8.7 C 10.4 C
22.09.2001 01:00 9.9 C 90 % 1006.7 hPa 0.0 l/m 0.0 km/h (0 Bft) N 8.3 C 9.9 C
22.09.2001 02:00 9.6 C 90 % 1006.7 hPa 0.0 l/m 0.0 km/h (0 Bft) N 8.1 C 9.6 C
22.09.2001 03:00 9.2 C 91 % 1006.0 hPa 0.0 l/m 0.0 km/h (0 Bft) N 7.8 C 9.2 C
22.09.2001 04:00 9.5 C 92 % 1005.7 hPa 0.3 l/m 0.0 km/h (0 Bft) N 8.2 C 9.5 C
22.09.2001 05:00 9.4 C 93 % 1005.6 hPa 0.3 l/m 0.0 km/h (0 Bft) N 8.3 C 9.4 C
22.09.2001 06:00 9.3 C 93 % 1005.1 hPa 0.0 l/m 0.7 km/h (0 Bft) W-NW 8.2 C 9.2 C
22.09.2001 07:00 9.2 C 94 % 1005.2 hPa 0.6 l/m 0.7 km/h (0 Bft) W-NW 8.2 C 9.2 C
22.09.2001 08:00 9.2 C 94 % 1005.6 hPa 3.1 l/m 0.2 km/h (0 Bft) W-NW 8.3 C 9.2 C
22.09.2001 09:00 9.4 C 95 % 1005.9 hPa 0.9 l/m 0.2 km/h (0 Bft) W 8.6 C 9.4 C
22.09.2001 10:00 9.9 C 93 % 1005.9 hPa 0.3 l/m 0.0 km/h (0 Bft) N 8.8 C 9.9 C
22.09.2001 11:00 10.3 C 91 % 1006.0 hPa 0.0 l/m 0.2 km/h (0 Bft) N 8.9 C 10.3 C
22.09.2001 12:00 11.3 C 89 % 1005.7 hPa 0.0 l/m 0.2 km/h (0 Bft) SO 9.5 C 11.3 C
22.09.2001 13:00 12.2 C 86 % 1005.7 hPa 0.0 l/m 1.5 km/h (1 Bft) O-SO 9.9 C 12.2 C
22.09.2001 14:00 12.2 C 85 % 1005.2 hPa 0.0 l/m 1.1 km/h (0 Bft) O 9.8 C 12.2 C
22.09.2001 15:00 12.8 C 84 % 1004.7 hPa 0.0 l/m 3.8 km/h (1 Bft) O-SO 10.1 C 12.8 C
22.09.2001 16:00 12.7 C 85 % 1004.7 hPa 0.0 l/m 1.1 km/h (0 Bft) O 10.3 C 12.7 C
22.09.2001 17:00 12.8 C 85 % 1003.6 hPa 0.0 l/m 0.6 km/h (0 Bft) O 10.3 C 12.8 C
22.09.2001 18:00 12.3 C 88 % 1003.6 hPa 0.0 l/m 0.0 km/h (0 Bft) N 10.4 C 12.3 C
22.09.2001 19:00 12.0 C 91 % 1003.6 hPa 0.0 l/m 0.0 km/h (0 Bft) N 10.5 C 12.0 C
22.09.2001 20:00 11.7 C 91 % 1003.7 hPa 0.0 l/m 1.1 km/h (1 Bft) O 10.3 C 11.7 C
22.09.2001 21:00 11.1 C 91 % 1004.5 hPa 0.0 l/m 0.2 km/h (0 Bft) O 9.7 C 11.1 C
22.09.2001 22:00 10.1 C 91 % 1004.7 hPa 0.0 l/m 0.7 km/h (0 Bft) O 8.7 C 10.1 C
22.09.2001 23:00 9.6 C 91 % 1003.8 hPa 0.0 l/m 0.5 km/h (0 Bft) O 8.3 C 9.6 C
23.09.2001 00:00 9.5 C 92 % 1003.6 hPa 0.0 l/m 0.2 km/h (0 Bft) O 8.3 C 9.5 C
23.09.2001 01:00 9.6 C 91 % 1003.6 hPa 0.0 l/m 0.0 km/h (0 Bft) N 8.3 C 9.6 C
23.09.2001 02:00 9.6 C 91 % 1002.7 hPa 0.0 l/m 0.0 km/h (0 Bft) N 8.2 C 9.6 C
23.09.2001 03:00 9.6 C 91 % 1002.1 hPa 0.0 l/m 0.0 km/h (0 Bft) N 8.3 C 9.6 C
23.09.2001 04:00 9.6 C 90 % 1001.5 hPa 0.0 l/m 0.0 km/h (0 Bft) N 8.0 C 9.6 C
23.09.2001 05:00 9.6 C 88 % 1000.5 hPa 0.0 l/m 0.2 km/h (0 Bft) NO 7.6 C 9.6 C
23.09.2001 06:00 9.5 C 87 % 999.5 hPa 0.0 l/m 0.8 km/h (0 Bft) NO 7.5 C 9.5 C
23.09.2001 07:00 9.6 C 86 % 999.5 hPa 0.0 l/m 0.5 km/h (0 Bft) N-NW 7.4 C 9.6 C
23.09.2001 08:00 9.9 C 84 % 998.5 hPa 0.0 l/m 0.5 km/h (0 Bft) N-NO 7.4 C 9.9 C
23.09.2001 09:00 10.4 C 83 % 998.5 hPa 0.0 l/m 0.4 km/h (0 Bft) SO 7.6 C 10.4 C
23.09.2001 10:00 11.1 C 81 % 998.5 hPa 0.0 l/m 1.0 km/h (0 Bft) O 8.0 C 11.1 C
23.09.2001 11:00 11.9 C 80 % 998.0 hPa 0.0 l/m 2.7 km/h (1 Bft) O-SO 8.6 C 11.9 C
23.09.2001 12:00 12.6 C 78 % 997.4 hPa 0.0 l/m 10.8 km/h (2 Bft) O-SO 8.8 C 12.6 C
23.09.2001 13:00 11.9 C 79 % 997.2 hPa 0.0 l/m 1.6 km/h (1 Bft) NO 8.4 C 11.9 C
23.09.2001 14:00 11.4 C 86 % 996.7 hPa 1.6 l/m 0.9 km/h (0 Bft) O 9.2 C 11.4 C
23.09.2001 15:00 11.7 C 88 % 996.4 hPa 0.3 l/m 0.7 km/h (0 Bft) O 9.8 C 11.7 C
23.09.2001 16:00 11.5 C 90 % 996.4 hPa 1.3 l/m 0.4 km/h (0 Bft) N 10.0 C 11.5 C
23.09.2001 17:00 11.2 C 92 % 996.3 hPa 1.6 l/m 0.8 km/h (0 Bft) O-SO 9.9 C 11.2 C
23.09.2001 18:00 10.8 C 92 % 996.4 hPa 1.3 l/m 2.3 km/h (1 Bft) O-SO 9.6 C 10.8 C
23.09.2001 19:00 10.5 C 91 % 996.4 hPa 1.9 l/m 2.2 km/h (1 Bft) O-SO 9.1 C 10.5 C
23.09.2001 20:00 10.3 C 91 % 996.4 hPa 0.6 l/m 0.4 km/h (0 Bft) O 8.9 C 10.3 C
23.09.2001 21:00 10.2 C 92 % 996.6 hPa 0.6 l/m 0.4 km/h (0 Bft) O 8.9 C 10.2 C
23.09.2001 22:00 10.2 C 92 % 996.6 hPa 0.0 l/m 0.0 km/h (0 Bft) N 9.0 C 10.2 C
23.09.2001 23:00 10.1 C 92 % 996.4 hPa 0.0 l/m 0.0 km/h (0 Bft) N 9.0 C 10.1 C
Min-Datum _ 19.09.01 18.09.01 23.09.01 - 17.09.01 - 19.09.01 19.09.01
_ Min-Zeit 02:04 16:21 17:29 - 00:17 - 02:04 01:31
Minimum _ 3.6 C 44 % 995.3 hPa - 0.0 km/h (0 Bft) - 2.9 C 2.4 C
Max-Datum _ 21.09.01 17.09.01 21.09.01 20.09.01 20.09.01 - 20.09.01 21.09.01
_ Max-Zeit 15:51 01:56 10:51 22:00 01:23 - 15:08 15:51
Maximum _ 17.1 C 96 % 1008.8 hPa 3.4 l/m 25.5 km/h
S (4 Bft)
- 12.5 C 17.1 C
Durchschnitt _ 10.2 C 86 % 1004.7 hPa #47.3 l/m 2.7 km/h (1 Bft) O-SO 7.9 C 10.1 C

Durchschnitt Minimum Temp.9.7 C
Durchschnitt Maximum Temp.10.6 C
© Kaiko 2001